sensor_id;sensor_type;location;lat;lon;timestamp;P1;durP1;ratioP1;P2;durP2;ratioP2
72920;SDS011;61064;51.654;5.476;2023-03-21T00:00:23;17.30;;;6.70;;
72920;SDS011;61064;51.654;5.476;2023-03-21T00:02:49;16.60;;;6.40;;
72920;SDS011;61064;51.654;5.476;2023-03-21T00:05:14;17.17;;;7.35;;
72920;SDS011;61064;51.654;5.476;2023-03-21T00:07:40;18.60;;;7.30;;
72920;SDS011;61064;51.654;5.476;2023-03-21T00:10:05;16.83;;;7.60;;
72920;SDS011;61064;51.654;5.476;2023-03-21T00:12:31;15.40;;;7.07;;
72920;SDS011;61064;51.654;5.476;2023-03-21T00:15:02;15.13;;;6.80;;
72920;SDS011;61064;51.654;5.476;2023-03-21T00:17:30;18.05;;;6.72;;
72920;SDS011;61064;51.654;5.476;2023-03-21T00:19:56;15.95;;;7.05;;
72920;SDS011;61064;51.654;5.476;2023-03-21T00:22:22;15.77;;;6.80;;
72920;SDS011;61064;51.654;5.476;2023-03-21T00:24:48;15.50;;;7.40;;
72920;SDS011;61064;51.654;5.476;2023-03-21T00:27:13;16.97;;;7.70;;
72920;SDS011;61064;51.654;5.476;2023-03-21T00:29:38;20.57;;;7.70;;
72920;SDS011;61064;51.654;5.476;2023-03-21T00:32:04;16.17;;;7.77;;
72920;SDS011;61064;51.654;5.476;2023-03-21T00:34:29;15.45;;;7.65;;
72920;SDS011;61064;51.654;5.476;2023-03-21T00:36:57;15.77;;;7.40;;
72920;SDS011;61064;51.654;5.476;2023-03-21T00:39:22;17.80;;;8.07;;
72920;SDS011;61064;51.654;5.476;2023-03-21T00:41:48;18.40;;;7.20;;
72920;SDS011;61064;51.654;5.476;2023-03-21T00:44:14;18.07;;;7.63;;
72920;SDS011;61064;51.654;5.476;2023-03-21T00:46:39;19.17;;;8.15;;
72920;SDS011;61064;51.654;5.476;2023-03-21T00:49:05;21.57;;;8.20;;
72920;SDS011;61064;51.654;5.476;2023-03-21T00:51:30;15.97;;;7.90;;
72920;SDS011;61064;51.654;5.476;2023-03-21T00:53:57;22.20;;;7.90;;
72920;SDS011;61064;51.654;5.476;2023-03-21T00:56:22;19.07;;;8.07;;
72920;SDS011;61064;51.654;5.476;2023-03-21T00:58:48;21.55;;;7.95;;
72920;SDS011;61064;51.654;5.476;2023-03-21T01:01:14;18.60;;;8.53;;
72920;SDS011;61064;51.654;5.476;2023-03-21T01:03:39;18.77;;;8.03;;
72920;SDS011;61064;51.654;5.476;2023-03-21T01:06:14;20.98;;;8.27;;
72920;SDS011;61064;51.654;5.476;2023-03-21T01:08:43;17.38;;;7.70;;
72920;SDS011;61064;51.654;5.476;2023-03-21T01:11:10;21.60;;;8.27;;
72920;SDS011;61064;51.654;5.476;2023-03-21T01:13:38;24.17;;;8.20;;
72920;SDS011;61064;51.654;5.476;2023-03-21T01:16:03;23.83;;;8.77;;
72920;SDS011;61064;51.654;5.476;2023-03-21T01:18:31;20.63;;;8.07;;
72920;SDS011;61064;51.654;5.476;2023-03-21T01:20:58;18.98;;;8.00;;
72920;SDS011;61064;51.654;5.476;2023-03-21T01:23:26;18.10;;;7.30;;
72920;SDS011;61064;51.654;5.476;2023-03-21T01:25:53;19.33;;;7.68;;
72920;SDS011;61064;51.654;5.476;2023-03-21T01:28:20;18.80;;;8.38;;
72920;SDS011;61064;51.654;5.476;2023-03-21T01:30:46;17.50;;;7.50;;
72920;SDS011;61064;51.654;5.476;2023-03-21T01:33:15;21.27;;;8.10;;
72920;SDS011;61064;51.654;5.476;2023-03-21T01:35:41;22.85;;;8.43;;
72920;SDS011;61064;51.654;5.476;2023-03-21T01:38:07;25.57;;;8.17;;
72920;SDS011;61064;51.654;5.476;2023-03-21T01:40:34;18.77;;;7.88;;
72920;SDS011;61064;51.654;5.476;2023-03-21T01:43:00;20.05;;;7.65;;
72920;SDS011;61064;51.654;5.476;2023-03-21T01:48:28;17.92;;;7.47;;
72920;SDS011;61064;51.654;5.476;2023-03-21T01:50:54;20.33;;;6.83;;
72920;SDS011;61064;51.654;5.476;2023-03-21T01:53:21;24.33;;;7.75;;
72920;SDS011;61064;51.654;5.476;2023-03-21T01:55:53;19.30;;;7.53;;
72920;SDS011;61064;51.654;5.476;2023-03-21T01:58:21;19.08;;;7.40;;
72920;SDS011;61064;51.654;5.476;2023-03-21T02:00:48;20.50;;;6.88;;
72920;SDS011;61064;51.654;5.476;2023-03-21T02:03:15;17.23;;;6.53;;
72920;SDS011;61064;51.654;5.476;2023-03-21T02:08:20;17.20;;;6.47;;
72920;SDS011;61064;51.654;5.476;2023-03-21T02:10:47;19.67;;;7.00;;
72920;SDS011;61064;51.654;5.476;2023-03-21T02:13:13;17.73;;;6.88;;
72920;SDS011;61064;51.654;5.476;2023-03-21T02:15:40;16.73;;;6.07;;
72920;SDS011;61064;51.654;5.476;2023-03-21T02:18:25;17.70;;;6.75;;
72920;SDS011;61064;51.654;5.476;2023-03-21T02:31:55;14.95;;;6.07;;
72920;SDS011;61064;51.654;5.476;2023-03-21T02:40:38;15.98;;;5.30;;
72920;SDS011;61064;51.654;5.476;2023-03-21T02:46:29;17.20;;;5.40;;
72920;SDS011;61064;51.654;5.476;2023-03-21T02:49:10;15.73;;;5.60;;
72920;SDS011;61064;51.654;5.476;2023-03-21T02:51:41;14.93;;;5.28;;
72920;SDS011;61064;51.654;5.476;2023-03-21T02:54:11;14.10;;;5.50;;
72920;SDS011;61064;51.654;5.476;2023-03-21T02:56:39;13.73;;;5.27;;
72920;SDS011;61064;51.654;5.476;2023-03-21T02:59:05;15.15;;;5.43;;
72920;SDS011;61064;51.654;5.476;2023-03-21T03:01:31;18.15;;;5.43;;
72920;SDS011;61064;51.654;5.476;2023-03-21T03:03:57;15.80;;;5.00;;
72920;SDS011;61064;51.654;5.476;2023-03-21T03:06:24;14.32;;;5.03;;
72920;SDS011;61064;51.654;5.476;2023-03-21T03:11:44;15.27;;;5.67;;
72920;SDS011;61064;51.654;5.476;2023-03-21T03:17:11;14.85;;;5.88;;
72920;SDS011;61064;51.654;5.476;2023-03-21T03:19:53;15.07;;;5.95;;
72920;SDS011;61064;51.654;5.476;2023-03-21T03:22:38;17.33;;;5.82;;
72920;SDS011;61064;51.654;5.476;2023-03-21T03:25:25;16.83;;;6.00;;
72920;SDS011;61064;51.654;5.476;2023-03-21T03:28:03;17.35;;;6.57;;
72920;SDS011;61064;51.654;5.476;2023-03-21T03:30:30;19.77;;;6.57;;
72920;SDS011;61064;51.654;5.476;2023-03-21T03:32:58;15.73;;;6.00;;
72920;SDS011;61064;51.654;5.476;2023-03-21T03:35:27;15.87;;;6.20;;
72920;SDS011;61064;51.654;5.476;2023-03-21T03:37:54;12.73;;;5.65;;
72920;SDS011;61064;51.654;5.476;2023-03-21T03:40:28;18.10;;;5.88;;
72920;SDS011;61064;51.654;5.476;2023-03-21T03:43:01;18.85;;;5.88;;
72920;SDS011;61064;51.654;5.476;2023-03-21T03:45:42;19.00;;;7.28;;
72920;SDS011;61064;51.654;5.476;2023-03-21T03:48:21;17.70;;;5.47;;
72920;SDS011;61064;51.654;5.476;2023-03-21T03:50:54;14.98;;;5.38;;
72920;SDS011;61064;51.654;5.476;2023-03-21T03:53:32;14.88;;;5.47;;
72920;SDS011;61064;51.654;5.476;2023-03-21T03:56:01;15.75;;;5.40;;
72920;SDS011;61064;51.654;5.476;2023-03-21T03:58:29;20.30;;;6.20;;
72920;SDS011;61064;51.654;5.476;2023-03-21T04:00:55;15.70;;;5.73;;
72920;SDS011;61064;51.654;5.476;2023-03-21T04:03:21;21.90;;;5.88;;
72920;SDS011;61064;51.654;5.476;2023-03-21T04:05:46;20.45;;;7.60;;
72920;SDS011;61064;51.654;5.476;2023-03-21T04:08:12;19.33;;;7.00;;
72920;SDS011;61064;51.654;5.476;2023-03-21T04:10:39;21.77;;;7.53;;
72920;SDS011;61064;51.654;5.476;2023-03-21T04:13:06;20.93;;;7.50;;
72920;SDS011;61064;51.654;5.476;2023-03-21T04:15:33;15.70;;;5.32;;
72920;SDS011;61064;51.654;5.476;2023-03-21T04:17:58;14.00;;;5.63;;
72920;SDS011;61064;51.654;5.476;2023-03-21T04:20:24;15.33;;;5.27;;
72920;SDS011;61064;51.654;5.476;2023-03-21T04:22:49;17.13;;;5.20;;
72920;SDS011;61064;51.654;5.476;2023-03-21T04:25:15;14.68;;;5.50;;
72920;SDS011;61064;51.654;5.476;2023-03-21T04:27:41;15.23;;;5.43;;
72920;SDS011;61064;51.654;5.476;2023-03-21T04:30:07;14.27;;;4.80;;
72920;SDS011;61064;51.654;5.476;2023-03-21T04:32:36;14.43;;;5.40;;
72920;SDS011;61064;51.654;5.476;2023-03-21T04:35:05;17.67;;;5.25;;
72920;SDS011;61064;51.654;5.476;2023-03-21T04:37:32;14.47;;;5.13;;
72920;SDS011;61064;51.654;5.476;2023-03-21T04:40:02;14.52;;;5.10;;
72920;SDS011;61064;51.654;5.476;2023-03-21T04:42:32;14.73;;;5.38;;
72920;SDS011;61064;51.654;5.476;2023-03-21T04:44:59;14.20;;;4.88;;
72920;SDS011;61064;51.654;5.476;2023-03-21T04:47:25;17.33;;;5.78;;
72920;SDS011;61064;51.654;5.476;2023-03-21T04:49:51;16.37;;;5.30;;
72920;SDS011;61064;51.654;5.476;2023-03-21T04:52:17;13.70;;;5.20;;
72920;SDS011;61064;51.654;5.476;2023-03-21T04:54:44;15.88;;;5.55;;
72920;SDS011;61064;51.654;5.476;2023-03-21T04:57:12;15.23;;;5.33;;
72920;SDS011;61064;51.654;5.476;2023-03-21T04:59:40;11.40;;;5.45;;
72920;SDS011;61064;51.654;5.476;2023-03-21T05:02:06;14.83;;;5.50;;
72920;SDS011;61064;51.654;5.476;2023-03-21T05:04:31;19.10;;;5.43;;
72920;SDS011;61064;51.654;5.476;2023-03-21T05:06:57;16.25;;;5.40;;
72920;SDS011;61064;51.654;5.476;2023-03-21T05:09:25;17.10;;;5.57;;
72920;SDS011;61064;51.654;5.476;2023-03-21T05:11:51;12.68;;;5.18;;
72920;SDS011;61064;51.654;5.476;2023-03-21T05:14:18;15.50;;;5.90;;
72920;SDS011;61064;51.654;5.476;2023-03-21T05:16:49;14.38;;;5.18;;
72920;SDS011;61064;51.654;5.476;2023-03-21T05:19:24;15.52;;;4.85;;
72920;SDS011;61064;51.654;5.476;2023-03-21T05:21:58;15.98;;;5.78;;
72920;SDS011;61064;51.654;5.476;2023-03-21T05:24:29;17.05;;;5.03;;
72920;SDS011;61064;51.654;5.476;2023-03-21T05:26:55;17.13;;;5.97;;
72920;SDS011;61064;51.654;5.476;2023-03-21T05:29:27;18.52;;;5.88;;
72920;SDS011;61064;51.654;5.476;2023-03-21T05:31:58;15.00;;;5.25;;
72920;SDS011;61064;51.654;5.476;2023-03-21T05:34:24;17.15;;;5.47;;
72920;SDS011;61064;51.654;5.476;2023-03-21T05:36:51;16.73;;;5.35;;
72920;SDS011;61064;51.654;5.476;2023-03-21T05:39:16;14.07;;;4.87;;
72920;SDS011;61064;51.654;5.476;2023-03-21T05:41:42;15.77;;;5.30;;
72920;SDS011;61064;51.654;5.476;2023-03-21T05:44:07;13.95;;;5.13;;
72920;SDS011;61064;51.654;5.476;2023-03-21T05:46:32;12.43;;;4.63;;
72920;SDS011;61064;51.654;5.476;2023-03-21T05:48:58;14.77;;;4.90;;
72920;SDS011;61064;51.654;5.476;2023-03-21T05:51:23;16.47;;;4.77;;
72920;SDS011;61064;51.654;5.476;2023-03-21T05:53:48;14.57;;;5.07;;
72920;SDS011;61064;51.654;5.476;2023-03-21T05:56:15;13.30;;;4.55;;
72920;SDS011;61064;51.654;5.476;2023-03-21T05:58:41;16.57;;;4.87;;
72920;SDS011;61064;51.654;5.476;2023-03-21T06:01:06;13.10;;;4.60;;
72920;SDS011;61064;51.654;5.476;2023-03-21T06:03:32;13.63;;;4.28;;
72920;SDS011;61064;51.654;5.476;2023-03-21T06:05:57;15.83;;;4.73;;
72920;SDS011;61064;51.654;5.476;2023-03-21T06:08:23;16.37;;;5.17;;
72920;SDS011;61064;51.654;5.476;2023-03-21T06:10:48;17.92;;;5.35;;
72920;SDS011;61064;51.654;5.476;2023-03-21T06:13:13;15.20;;;5.17;;
72920;SDS011;61064;51.654;5.476;2023-03-21T06:15:39;14.65;;;4.70;;
72920;SDS011;61064;51.654;5.476;2023-03-21T06:18:05;13.30;;;4.97;;
72920;SDS011;61064;51.654;5.476;2023-03-21T06:20:30;11.83;;;4.80;;
72920;SDS011;61064;51.654;5.476;2023-03-21T06:22:56;15.00;;;5.37;;
72920;SDS011;61064;51.654;5.476;2023-03-21T06:25:21;16.63;;;4.00;;
72920;SDS011;61064;51.654;5.476;2023-03-21T06:27:46;11.73;;;4.20;;
72920;SDS011;61064;51.654;5.476;2023-03-21T06:30:12;14.70;;;4.63;;
72920;SDS011;61064;51.654;5.476;2023-03-21T06:32:37;13.88;;;4.47;;
72920;SDS011;61064;51.654;5.476;2023-03-21T06:35:03;14.23;;;4.17;;
72920;SDS011;61064;51.654;5.476;2023-03-21T06:37:28;15.43;;;4.63;;
72920;SDS011;61064;51.654;5.476;2023-03-21T06:39:54;12.67;;;4.27;;
72920;SDS011;61064;51.654;5.476;2023-03-21T06:42:20;16.40;;;4.10;;
72920;SDS011;61064;51.654;5.476;2023-03-21T06:44:45;14.07;;;3.67;;
72920;SDS011;61064;51.654;5.476;2023-03-21T06:47:11;12.20;;;3.60;;
72920;SDS011;61064;51.654;5.476;2023-03-21T06:49:36;16.03;;;3.97;;
72920;SDS011;61064;51.654;5.476;2023-03-21T06:52:01;13.20;;;4.13;;
72920;SDS011;61064;51.654;5.476;2023-03-21T06:54:28;13.57;;;3.83;;
72920;SDS011;61064;51.654;5.476;2023-03-21T06:56:53;12.35;;;3.70;;
72920;SDS011;61064;51.654;5.476;2023-03-21T06:59:19;13.43;;;4.03;;
72920;SDS011;61064;51.654;5.476;2023-03-21T07:01:45;16.45;;;4.28;;
72920;SDS011;61064;51.654;5.476;2023-03-21T07:04:11;14.77;;;3.90;;
72920;SDS011;61064;51.654;5.476;2023-03-21T07:06:36;14.85;;;3.78;;
72920;SDS011;61064;51.654;5.476;2023-03-21T07:09:02;15.73;;;4.10;;
72920;SDS011;61064;51.654;5.476;2023-03-21T07:11:29;14.57;;;4.30;;
72920;SDS011;61064;51.654;5.476;2023-03-21T07:13:55;12.85;;;3.95;;
72920;SDS011;61064;51.654;5.476;2023-03-21T07:16:21;13.40;;;4.17;;
72920;SDS011;61064;51.654;5.476;2023-03-21T07:18:49;14.85;;;4.40;;
72920;SDS011;61064;51.654;5.476;2023-03-21T07:21:15;16.88;;;4.55;;
72920;SDS011;61064;51.654;5.476;2023-03-21T07:23:42;15.38;;;4.35;;
72920;SDS011;61064;51.654;5.476;2023-03-21T07:26:08;14.45;;;4.40;;
72920;SDS011;61064;51.654;5.476;2023-03-21T07:28:33;14.30;;;4.50;;
72920;SDS011;61064;51.654;5.476;2023-03-21T07:31:01;15.03;;;5.07;;
72920;SDS011;61064;51.654;5.476;2023-03-21T07:33:29;12.57;;;3.95;;
72920;SDS011;61064;51.654;5.476;2023-03-21T07:35:55;13.85;;;4.80;;
72920;SDS011;61064;51.654;5.476;2023-03-21T07:38:24;14.52;;;4.75;;
72920;SDS011;61064;51.654;5.476;2023-03-21T07:40:51;13.50;;;4.25;;
72920;SDS011;61064;51.654;5.476;2023-03-21T07:43:17;14.23;;;4.50;;
72920;SDS011;61064;51.654;5.476;2023-03-21T07:45:43;16.48;;;4.90;;
72920;SDS011;61064;51.654;5.476;2023-03-21T07:48:10;12.20;;;4.18;;
72920;SDS011;61064;51.654;5.476;2023-03-21T07:50:38;15.63;;;4.70;;
72920;SDS011;61064;51.654;5.476;2023-03-21T07:53:04;15.67;;;4.60;;
72920;SDS011;61064;51.654;5.476;2023-03-21T07:55:30;12.30;;;4.07;;
72920;SDS011;61064;51.654;5.476;2023-03-21T07:57:59;12.82;;;4.57;;
72920;SDS011;61064;51.654;5.476;2023-03-21T08:00:28;13.23;;;4.67;;
72920;SDS011;61064;51.654;5.476;2023-03-21T08:02:53;16.95;;;4.60;;
72920;SDS011;61064;51.654;5.476;2023-03-21T08:05:21;16.77;;;5.00;;
72920;SDS011;61064;51.654;5.476;2023-03-21T08:07:51;16.47;;;4.90;;
72920;SDS011;61064;51.654;5.476;2023-03-21T08:10:17;15.23;;;5.00;;
72920;SDS011;61064;51.654;5.476;2023-03-21T08:12:43;15.25;;;4.90;;
72920;SDS011;61064;51.654;5.476;2023-03-21T08:15:10;18.23;;;6.65;;
72920;SDS011;61064;51.654;5.476;2023-03-21T08:17:36;21.50;;;6.03;;
72920;SDS011;61064;51.654;5.476;2023-03-21T08:20:04;14.52;;;5.30;;
72920;SDS011;61064;51.654;5.476;2023-03-21T08:22:35;13.70;;;4.97;;
72920;SDS011;61064;51.654;5.476;2023-03-21T08:25:01;16.75;;;5.50;;
72920;SDS011;61064;51.654;5.476;2023-03-21T08:27:29;14.00;;;5.03;;
72920;SDS011;61064;51.654;5.476;2023-03-21T08:29:55;15.00;;;5.75;;
72920;SDS011;61064;51.654;5.476;2023-03-21T08:32:20;13.23;;;4.80;;
72920;SDS011;61064;51.654;5.476;2023-03-21T08:34:53;14.55;;;5.20;;
72920;SDS011;61064;51.654;5.476;2023-03-21T08:37:18;16.43;;;5.00;;
72920;SDS011;61064;51.654;5.476;2023-03-21T08:39:43;15.10;;;5.00;;
72920;SDS011;61064;51.654;5.476;2023-03-21T08:42:09;16.40;;;5.33;;
72920;SDS011;61064;51.654;5.476;2023-03-21T08:44:34;13.30;;;5.23;;
72920;SDS011;61064;51.654;5.476;2023-03-21T08:47:00;16.97;;;5.10;;
72920;SDS011;61064;51.654;5.476;2023-03-21T08:49:26;14.90;;;5.25;;
72920;SDS011;61064;51.654;5.476;2023-03-21T08:51:54;15.07;;;4.97;;
72920;SDS011;61064;51.654;5.476;2023-03-21T08:54:20;15.35;;;5.10;;
72920;SDS011;61064;51.654;5.476;2023-03-21T08:56:46;16.23;;;5.45;;
72920;SDS011;61064;51.654;5.476;2023-03-21T08:59:12;17.97;;;4.97;;
72920;SDS011;61064;51.654;5.476;2023-03-21T09:01:39;15.48;;;5.35;;
72920;SDS011;61064;51.654;5.476;2023-03-21T09:04:05;14.40;;;5.03;;
72920;SDS011;61064;51.654;5.476;2023-03-21T09:06:34;13.23;;;5.20;;
72920;SDS011;61064;51.654;5.476;2023-03-21T09:09:00;11.70;;;4.73;;
72920;SDS011;61064;51.654;5.476;2023-03-21T09:11:25;14.98;;;4.80;;
72920;SDS011;61064;51.654;5.476;2023-03-21T09:13:51;15.73;;;4.83;;
72920;SDS011;61064;51.654;5.476;2023-03-21T09:16:16;13.23;;;4.77;;
72920;SDS011;61064;51.654;5.476;2023-03-21T09:18:41;12.17;;;4.20;;
72920;SDS011;61064;51.654;5.476;2023-03-21T09:21:12;10.15;;;3.95;;
72920;SDS011;61064;51.654;5.476;2023-03-21T09:23:42;12.38;;;4.43;;
72920;SDS011;61064;51.654;5.476;2023-03-21T09:26:09;11.88;;;4.40;;
72920;SDS011;61064;51.654;5.476;2023-03-21T09:28:34;12.30;;;4.53;;
72920;SDS011;61064;51.654;5.476;2023-03-21T09:31:03;13.77;;;4.32;;
72920;SDS011;61064;51.654;5.476;2023-03-21T09:33:29;14.80;;;4.50;;
72920;SDS011;61064;51.654;5.476;2023-03-21T09:35:55;12.50;;;4.40;;
72920;SDS011;61064;51.654;5.476;2023-03-21T09:38:22;11.83;;;4.03;;
72920;SDS011;61064;51.654;5.476;2023-03-21T09:46:23;11.77;;;3.80;;
72920;SDS011;61064;51.654;5.476;2023-03-21T09:49:18;11.57;;;3.90;;
72920;SDS011;61064;51.654;5.476;2023-03-21T09:51:49;10.37;;;3.90;;
72920;SDS011;61064;51.654;5.476;2023-03-21T09:54:22;12.90;;;3.85;;
72920;SDS011;61064;51.654;5.476;2023-03-21T09:56:52;11.20;;;3.88;;
72920;SDS011;61064;51.654;5.476;2023-03-21T09:59:41;13.50;;;3.90;;
72920;SDS011;61064;51.654;5.476;2023-03-21T10:02:32;10.77;;;3.60;;
72920;SDS011;61064;51.654;5.476;2023-03-21T10:05:03;10.43;;;3.63;;
72920;SDS011;61064;51.654;5.476;2023-03-21T10:07:41;13.13;;;3.70;;
72920;SDS011;61064;51.654;5.476;2023-03-21T10:10:15;12.60;;;3.58;;
72920;SDS011;61064;51.654;5.476;2023-03-21T10:12:44;10.32;;;3.38;;
72920;SDS011;61064;51.654;5.476;2023-03-21T10:15:14;12.13;;;3.42;;
72920;SDS011;61064;51.654;5.476;2023-03-21T10:17:43;14.10;;;3.60;;
72920;SDS011;61064;51.654;5.476;2023-03-21T10:20:20;9.63;;;3.53;;
72920;SDS011;61064;51.654;5.476;2023-03-21T10:22:52;13.85;;;3.97;;
72920;SDS011;61064;51.654;5.476;2023-03-21T10:25:30;10.90;;;3.50;;
72920;SDS011;61064;51.654;5.476;2023-03-21T10:28:01;11.70;;;3.67;;
72920;SDS011;61064;51.654;5.476;2023-03-21T10:30:37;12.53;;;3.90;;
72920;SDS011;61064;51.654;5.476;2023-03-21T10:33:07;12.75;;;3.70;;
72920;SDS011;61064;51.654;5.476;2023-03-21T10:35:38;11.70;;;3.08;;
72920;SDS011;61064;51.654;5.476;2023-03-21T10:38:10;11.32;;;3.15;;
72920;SDS011;61064;51.654;5.476;2023-03-21T10:40:40;9.90;;;3.58;;
72920;SDS011;61064;51.654;5.476;2023-03-21T10:43:16;10.73;;;3.30;;
72920;SDS011;61064;51.654;5.476;2023-03-21T10:45:45;13.00;;;3.78;;
72920;SDS011;61064;51.654;5.476;2023-03-21T10:48:11;10.77;;;3.20;;
72920;SDS011;61064;51.654;5.476;2023-03-21T10:50:38;10.60;;;3.58;;
72920;SDS011;61064;51.654;5.476;2023-03-21T10:53:05;9.00;;;3.45;;
72920;SDS011;61064;51.654;5.476;2023-03-21T10:55:41;13.23;;;3.72;;
72920;SDS011;61064;51.654;5.476;2023-03-21T10:58:07;13.00;;;3.33;;
72920;SDS011;61064;51.654;5.476;2023-03-21T11:00:43;10.63;;;3.45;;
72920;SDS011;61064;51.654;5.476;2023-03-21T11:03:53;10.52;;;3.20;;
72920;SDS011;61064;51.654;5.476;2023-03-21T11:06:12;8.77;;;2.70;;
72920;SDS011;61064;51.654;5.476;2023-03-21T11:08:48;10.70;;;2.72;;
72920;SDS011;61064;51.654;5.476;2023-03-21T11:11:25;11.47;;;3.47;;
72920;SDS011;61064;51.654;5.476;2023-03-21T11:13:57;12.88;;;3.25;;
72920;SDS011;61064;51.654;5.476;2023-03-21T11:16:45;12.57;;;3.00;;
72920;SDS011;61064;51.654;5.476;2023-03-21T11:19:12;11.68;;;3.05;;
72920;SDS011;61064;51.654;5.476;2023-03-21T11:21:42;9.23;;;3.22;;
72920;SDS011;61064;51.654;5.476;2023-03-21T11:24:17;13.53;;;3.33;;
72920;SDS011;61064;51.654;5.476;2023-03-21T11:26:44;12.18;;;3.45;;
72920;SDS011;61064;51.654;5.476;2023-03-21T11:29:25;11.73;;;3.40;;
72920;SDS011;61064;51.654;5.476;2023-03-21T11:32:12;10.75;;;3.47;;
72920;SDS011;61064;51.654;5.476;2023-03-21T11:34:56;11.23;;;2.95;;
72920;SDS011;61064;51.654;5.476;2023-03-21T11:42:52;10.65;;;3.17;;
72920;SDS011;61064;51.654;5.476;2023-03-21T11:45:26;11.18;;;2.90;;
72920;SDS011;61064;51.654;5.476;2023-03-21T11:47:56;12.65;;;3.22;;
72920;SDS011;61064;51.654;5.476;2023-03-21T11:50:28;9.73;;;2.70;;
72920;SDS011;61064;51.654;5.476;2023-03-21T11:55:34;9.32;;;2.72;;
72920;SDS011;61064;51.654;5.476;2023-03-21T12:00:59;9.35;;;2.67;;
72920;SDS011;61064;51.654;5.476;2023-03-21T12:06:40;9.68;;;2.60;;
72920;SDS011;61064;51.654;5.476;2023-03-21T12:09:29;10.77;;;2.58;;
72920;SDS011;61064;51.654;5.476;2023-03-21T12:14:54;9.35;;;2.90;;
72920;SDS011;61064;51.654;5.476;2023-03-21T12:20:22;10.13;;;2.90;;
72920;SDS011;61064;51.654;5.476;2023-03-21T12:23:00;12.10;;;2.90;;
72920;SDS011;61064;51.654;5.476;2023-03-21T12:28:42;14.30;;;3.03;;
72920;SDS011;61064;51.654;5.476;2023-03-21T12:31:26;11.27;;;3.00;;
72920;SDS011;61064;51.654;5.476;2023-03-21T12:34:15;9.20;;;2.65;;
72920;SDS011;61064;51.654;5.476;2023-03-21T12:39:34;9.02;;;2.92;;
72920;SDS011;61064;51.654;5.476;2023-03-21T12:44:38;9.37;;;3.23;;
72920;SDS011;61064;51.654;5.476;2023-03-21T12:47:09;9.30;;;3.30;;
72920;SDS011;61064;51.654;5.476;2023-03-21T12:49:45;9.90;;;2.88;;
72920;SDS011;61064;51.654;5.476;2023-03-21T12:52:28;9.48;;;3.13;;
72920;SDS011;61064;51.654;5.476;2023-03-21T12:55:05;10.65;;;3.15;;
72920;SDS011;61064;51.654;5.476;2023-03-21T12:57:44;9.93;;;3.13;;
72920;SDS011;61064;51.654;5.476;2023-03-21T13:03:03;13.85;;;3.67;;
72920;SDS011;61064;51.654;5.476;2023-03-21T13:05:57;9.32;;;2.65;;
72920;SDS011;61064;51.654;5.476;2023-03-21T13:08:35;9.88;;;2.85;;
72920;SDS011;61064;51.654;5.476;2023-03-21T13:11:28;9.57;;;3.20;;
72920;SDS011;61064;51.654;5.476;2023-03-21T13:14:11;9.50;;;2.63;;
72920;SDS011;61064;51.654;5.476;2023-03-21T13:17:03;10.45;;;2.92;;
72920;SDS011;61064;51.654;5.476;2023-03-21T13:22:30;11.70;;;2.72;;
72920;SDS011;61064;51.654;5.476;2023-03-21T13:25:04;10.43;;;2.67;;
72920;SDS011;61064;51.654;5.476;2023-03-21T13:27:42;9.30;;;2.63;;
72920;SDS011;61064;51.654;5.476;2023-03-21T13:32:41;9.93;;;2.70;;
72920;SDS011;61064;51.654;5.476;2023-03-21T13:35:12;8.98;;;2.67;;
72920;SDS011;61064;51.654;5.476;2023-03-21T13:38:02;9.20;;;2.67;;
72920;SDS011;61064;51.654;5.476;2023-03-21T13:43:34;10.27;;;3.08;;
72920;SDS011;61064;51.654;5.476;2023-03-21T13:46:13;10.65;;;2.80;;
72920;SDS011;61064;51.654;5.476;2023-03-21T13:48:59;12.70;;;2.80;;
72920;SDS011;61064;51.654;5.476;2023-03-21T13:54:13;7.85;;;2.53;;
72920;SDS011;61064;51.654;5.476;2023-03-21T14:04:39;8.13;;;2.53;;
72920;SDS011;61064;51.654;5.476;2023-03-21T14:07:10;10.33;;;2.70;;
72920;SDS011;61064;51.654;5.476;2023-03-21T14:12:06;8.13;;;2.60;;
72920;SDS011;61064;51.654;5.476;2023-03-21T14:15:19;6.30;;;2.50;;
72920;SDS011;61064;51.654;5.476;2023-03-21T14:17:31;11.30;;;2.75;;
72920;SDS011;61064;51.654;5.476;2023-03-21T14:19:59;8.80;;;2.72;;
72920;SDS011;61064;51.654;5.476;2023-03-21T14:22:26;10.25;;;2.60;;
72920;SDS011;61064;51.654;5.476;2023-03-21T14:24:57;10.03;;;2.60;;
72920;SDS011;61064;51.654;5.476;2023-03-21T14:27:24;9.15;;;2.75;;
72920;SDS011;61064;51.654;5.476;2023-03-21T14:29:54;9.80;;;2.72;;
72920;SDS011;61064;51.654;5.476;2023-03-21T14:32:21;8.80;;;3.08;;
72920;SDS011;61064;51.654;5.476;2023-03-21T14:34:49;10.70;;;2.97;;
72920;SDS011;61064;51.654;5.476;2023-03-21T14:37:31;8.53;;;2.80;;
72920;SDS011;61064;51.654;5.476;2023-03-21T14:40:01;7.63;;;2.53;;
72920;SDS011;61064;51.654;5.476;2023-03-21T14:42:36;7.72;;;2.35;;
72920;SDS011;61064;51.654;5.476;2023-03-21T14:45:19;8.73;;;2.40;;
72920;SDS011;61064;51.654;5.476;2023-03-21T14:47:59;6.67;;;2.40;;
72920;SDS011;61064;51.654;5.476;2023-03-21T14:53:17;6.95;;;2.53;;
72920;SDS011;61064;51.654;5.476;2023-03-21T14:55:45;8.38;;;2.53;;
72920;SDS011;61064;51.654;5.476;2023-03-21T14:58:15;10.05;;;2.60;;
72920;SDS011;61064;51.654;5.476;2023-03-21T15:00:46;8.23;;;2.40;;
72920;SDS011;61064;51.654;5.476;2023-03-21T15:03:14;9.32;;;2.88;;
72920;SDS011;61064;51.654;5.476;2023-03-21T15:05:41;8.82;;;2.80;;
72920;SDS011;61064;51.654;5.476;2023-03-21T15:10:36;10.15;;;2.70;;
72920;SDS011;61064;51.654;5.476;2023-03-21T15:13:12;6.60;;;2.23;;
72920;SDS011;61064;51.654;5.476;2023-03-21T15:15:50;6.50;;;2.40;;
72920;SDS011;61064;51.654;5.476;2023-03-21T15:18:19;7.57;;;2.47;;
72920;SDS011;61064;51.654;5.476;2023-03-21T15:20:50;7.25;;;2.38;;
72920;SDS011;61064;51.654;5.476;2023-03-21T15:23:25;7.80;;;2.38;;
72920;SDS011;61064;51.654;5.476;2023-03-21T15:25:55;7.30;;;2.30;;
72920;SDS011;61064;51.654;5.476;2023-03-21T15:28:23;8.23;;;2.58;;
72920;SDS011;61064;51.654;5.476;2023-03-21T15:30:50;8.02;;;2.35;;
72920;SDS011;61064;51.654;5.476;2023-03-21T15:33:17;7.25;;;2.22;;
72920;SDS011;61064;51.654;5.476;2023-03-21T15:35:44;7.50;;;2.53;;
72920;SDS011;61064;51.654;5.476;2023-03-21T15:43:39;8.27;;;2.50;;
72920;SDS011;61064;51.654;5.476;2023-03-21T15:46:11;8.83;;;3.13;;
72920;SDS011;61064;51.654;5.476;2023-03-21T15:48:38;7.68;;;2.50;;
72920;SDS011;61064;51.654;5.476;2023-03-21T15:51:04;10.27;;;2.70;;
72920;SDS011;61064;51.654;5.476;2023-03-21T15:53:32;7.93;;;2.42;;
72920;SDS011;61064;51.654;5.476;2023-03-21T15:55:59;8.90;;;2.13;;
72920;SDS011;61064;51.654;5.476;2023-03-21T15:58:31;7.50;;;2.60;;
72920;SDS011;61064;51.654;5.476;2023-03-21T16:01:00;6.93;;;2.28;;
72920;SDS011;61064;51.654;5.476;2023-03-21T16:03:30;6.00;;;2.08;;
72920;SDS011;61064;51.654;5.476;2023-03-21T16:06:03;9.02;;;2.28;;
72920;SDS011;61064;51.654;5.476;2023-03-21T16:08:48;6.57;;;2.22;;
72920;SDS011;61064;51.654;5.476;2023-03-21T16:11:23;8.70;;;2.10;;
72920;SDS011;61064;51.654;5.476;2023-03-21T16:13:52;6.85;;;2.22;;
72920;SDS011;61064;51.654;5.476;2023-03-21T16:16:23;7.18;;;2.40;;
72920;SDS011;61064;51.654;5.476;2023-03-21T16:18:50;7.47;;;2.10;;
72920;SDS011;61064;51.654;5.476;2023-03-21T16:21:17;8.50;;;2.47;;
72920;SDS011;61064;51.654;5.476;2023-03-21T16:23:45;8.37;;;2.70;;
72920;SDS011;61064;51.654;5.476;2023-03-21T16:26:12;8.82;;;2.63;;
72920;SDS011;61064;51.654;5.476;2023-03-21T16:28:40;8.57;;;2.42;;
72920;SDS011;61064;51.654;5.476;2023-03-21T16:31:08;9.93;;;2.65;;
72920;SDS011;61064;51.654;5.476;2023-03-21T16:33:37;9.63;;;2.95;;